sensor_id;sensor_type;location;lat;lon;timestamp;P1;durP1;ratioP1;P2;durP2;ratioP2
1262;SDS011;62267;50.112;8.704;2023-11-19T00:00:59;14.20;;;10.87;;
1262;SDS011;62267;50.112;8.704;2023-11-19T00:03:27;11.30;;;9.70;;
1262;SDS011;62267;50.112;8.704;2023-11-19T00:05:55;13.03;;;10.77;;
1262;SDS011;62267;50.112;8.704;2023-11-19T00:08:22;12.30;;;11.00;;
1262;SDS011;62267;50.112;8.704;2023-11-19T00:10:51;13.30;;;11.30;;
1262;SDS011;62267;50.112;8.704;2023-11-19T00:13:19;11.50;;;10.30;;
1262;SDS011;62267;50.112;8.704;2023-11-19T00:15:47;16.93;;;11.83;;
1262;SDS011;62267;50.112;8.704;2023-11-19T00:18:14;12.50;;;10.30;;
1262;SDS011;62267;50.112;8.704;2023-11-19T00:20:42;12.60;;;11.07;;
1262;SDS011;62267;50.112;8.704;2023-11-19T00:23:11;14.93;;;11.60;;
1262;SDS011;62267;50.112;8.704;2023-11-19T00:25:39;14.67;;;10.80;;
1262;SDS011;62267;50.112;8.704;2023-11-19T00:28:06;14.40;;;11.20;;
1262;SDS011;62267;50.112;8.704;2023-11-19T00:30:35;14.17;;;12.17;;
1262;SDS011;62267;50.112;8.704;2023-11-19T00:33:02;15.03;;;12.40;;
1262;SDS011;62267;50.112;8.704;2023-11-19T00:35:30;14.83;;;11.47;;
1262;SDS011;62267;50.112;8.704;2023-11-19T00:37:58;14.87;;;12.63;;
1262;SDS011;62267;50.112;8.704;2023-11-19T00:40:25;14.80;;;11.20;;
1262;SDS011;62267;50.112;8.704;2023-11-19T00:42:53;15.67;;;12.43;;
1262;SDS011;62267;50.112;8.704;2023-11-19T00:45:21;18.30;;;14.20;;
1262;SDS011;62267;50.112;8.704;2023-11-19T00:47:50;17.13;;;12.00;;
1262;SDS011;62267;50.112;8.704;2023-11-19T00:50:18;15.80;;;12.23;;
1262;SDS011;62267;50.112;8.704;2023-11-19T00:52:46;15.43;;;12.70;;
1262;SDS011;62267;50.112;8.704;2023-11-19T00:55:14;22.23;;;13.77;;
1262;SDS011;62267;50.112;8.704;2023-11-19T00:57:42;15.37;;;11.70;;
1262;SDS011;62267;50.112;8.704;2023-11-19T01:00:11;12.87;;;11.37;;
1262;SDS011;62267;50.112;8.704;2023-11-19T01:02:46;22.60;;;14.20;;
1262;SDS011;62267;50.112;8.704;2023-11-19T01:05:18;18.23;;;12.80;;
1262;SDS011;62267;50.112;8.704;2023-11-19T01:07:49;14.67;;;12.40;;
1262;SDS011;62267;50.112;8.704;2023-11-19T01:10:18;12.40;;;11.17;;
1262;SDS011;62267;50.112;8.704;2023-11-19T01:12:46;13.90;;;11.23;;
1262;SDS011;62267;50.112;8.704;2023-11-19T01:15:13;13.93;;;11.43;;
1262;SDS011;62267;50.112;8.704;2023-11-19T01:17:42;11.07;;;9.87;;
1262;SDS011;62267;50.112;8.704;2023-11-19T01:20:13;14.47;;;11.87;;
1262;SDS011;62267;50.112;8.704;2023-11-19T01:22:40;11.17;;;9.83;;
1262;SDS011;62267;50.112;8.704;2023-11-19T01:25:08;11.70;;;9.53;;
1262;SDS011;62267;50.112;8.704;2023-11-19T01:27:36;11.57;;;10.37;;
1262;SDS011;62267;50.112;8.704;2023-11-19T01:30:05;12.13;;;10.33;;
1262;SDS011;62267;50.112;8.704;2023-11-19T01:32:36;12.53;;;10.87;;
1262;SDS011;62267;50.112;8.704;2023-11-19T01:35:03;10.93;;;8.80;;
1262;SDS011;62267;50.112;8.704;2023-11-19T01:37:32;11.17;;;9.67;;
1262;SDS011;62267;50.112;8.704;2023-11-19T01:40:01;11.73;;;10.13;;
1262;SDS011;62267;50.112;8.704;2023-11-19T01:42:37;12.53;;;10.83;;
1262;SDS011;62267;50.112;8.704;2023-11-19T01:45:05;11.23;;;9.97;;
1262;SDS011;62267;50.112;8.704;2023-11-19T01:47:37;13.50;;;9.80;;
1262;SDS011;62267;50.112;8.704;2023-11-19T01:50:06;10.80;;;9.00;;
1262;SDS011;62267;50.112;8.704;2023-11-19T01:52:34;15.53;;;9.70;;
1262;SDS011;62267;50.112;8.704;2023-11-19T01:55:06;12.70;;;9.60;;
1262;SDS011;62267;50.112;8.704;2023-11-19T01:57:35;11.80;;;9.83;;
1262;SDS011;62267;50.112;8.704;2023-11-19T02:00:05;10.87;;;9.57;;
1262;SDS011;62267;50.112;8.704;2023-11-19T02:02:39;9.63;;;8.30;;
1262;SDS011;62267;50.112;8.704;2023-11-19T02:05:08;9.30;;;8.30;;
1262;SDS011;62267;50.112;8.704;2023-11-19T02:07:35;11.80;;;8.97;;
1262;SDS011;62267;50.112;8.704;2023-11-19T02:10:02;11.07;;;8.63;;
1262;SDS011;62267;50.112;8.704;2023-11-19T02:12:32;11.00;;;8.77;;
1262;SDS011;62267;50.112;8.704;2023-11-19T02:15:03;10.10;;;6.90;;
1262;SDS011;62267;50.112;8.704;2023-11-19T02:17:31;9.30;;;8.23;;
1262;SDS011;62267;50.112;8.704;2023-11-19T02:19:58;8.73;;;7.83;;
1262;SDS011;62267;50.112;8.704;2023-11-19T02:22:34;8.63;;;7.70;;
1262;SDS011;62267;50.112;8.704;2023-11-19T02:25:04;9.43;;;7.07;;
1262;SDS011;62267;50.112;8.704;2023-11-19T02:27:53;9.03;;;7.87;;
1262;SDS011;62267;50.112;8.704;2023-11-19T02:30:23;7.10;;;6.50;;
1262;SDS011;62267;50.112;8.704;2023-11-19T02:32:55;9.30;;;7.70;;
1262;SDS011;62267;50.112;8.704;2023-11-19T02:35:32;8.00;;;7.07;;
1262;SDS011;62267;50.112;8.704;2023-11-19T02:38:00;10.33;;;7.40;;
1262;SDS011;62267;50.112;8.704;2023-11-19T02:40:27;9.23;;;8.33;;
1262;SDS011;62267;50.112;8.704;2023-11-19T02:42:55;10.97;;;7.90;;
1262;SDS011;62267;50.112;8.704;2023-11-19T02:45:23;7.63;;;6.83;;
1262;SDS011;62267;50.112;8.704;2023-11-19T02:47:53;8.30;;;7.50;;
1262;SDS011;62267;50.112;8.704;2023-11-19T02:50:22;13.73;;;8.20;;
1262;SDS011;62267;50.112;8.704;2023-11-19T02:52:53;7.70;;;6.80;;
1262;SDS011;62267;50.112;8.704;2023-11-19T02:55:24;7.50;;;6.80;;
1262;SDS011;62267;50.112;8.704;2023-11-19T02:57:54;7.00;;;6.27;;
1262;SDS011;62267;50.112;8.704;2023-11-19T03:00:23;7.43;;;6.70;;
1262;SDS011;62267;50.112;8.704;2023-11-19T03:02:51;9.60;;;6.97;;
1262;SDS011;62267;50.112;8.704;2023-11-19T03:05:26;6.37;;;5.77;;
1262;SDS011;62267;50.112;8.704;2023-11-19T03:07:57;7.13;;;6.47;;
1262;SDS011;62267;50.112;8.704;2023-11-19T03:10:24;7.43;;;6.73;;
1262;SDS011;62267;50.112;8.704;2023-11-19T03:12:52;7.67;;;6.47;;
1262;SDS011;62267;50.112;8.704;2023-11-19T03:15:21;7.43;;;6.63;;
1262;SDS011;62267;50.112;8.704;2023-11-19T03:17:51;6.63;;;5.97;;
1262;SDS011;62267;50.112;8.704;2023-11-19T03:20:19;8.30;;;7.37;;
1262;SDS011;62267;50.112;8.704;2023-11-19T03:22:47;6.93;;;5.90;;
1262;SDS011;62267;50.112;8.704;2023-11-19T03:25:15;7.40;;;5.90;;
1262;SDS011;62267;50.112;8.704;2023-11-19T03:27:42;6.77;;;6.17;;
1262;SDS011;62267;50.112;8.704;2023-11-19T03:30:10;6.93;;;6.43;;
1262;SDS011;62267;50.112;8.704;2023-11-19T03:32:38;8.90;;;6.97;;
1262;SDS011;62267;50.112;8.704;2023-11-19T03:35:06;6.93;;;6.27;;
1262;SDS011;62267;50.112;8.704;2023-11-19T03:37:35;8.30;;;7.50;;
1262;SDS011;62267;50.112;8.704;2023-11-19T03:40:03;7.83;;;6.83;;
1262;SDS011;62267;50.112;8.704;2023-11-19T03:42:32;7.67;;;6.90;;
1262;SDS011;62267;50.112;8.704;2023-11-19T03:44:59;7.57;;;6.73;;
1262;SDS011;62267;50.112;8.704;2023-11-19T03:47:27;8.13;;;7.40;;
1262;SDS011;62267;50.112;8.704;2023-11-19T03:49:55;7.80;;;7.10;;
1262;SDS011;62267;50.112;8.704;2023-11-19T03:52:22;8.10;;;7.30;;
1262;SDS011;62267;50.112;8.704;2023-11-19T03:54:50;8.03;;;7.33;;
1262;SDS011;62267;50.112;8.704;2023-11-19T03:57:17;8.00;;;7.10;;
1262;SDS011;62267;50.112;8.704;2023-11-19T03:59:45;8.47;;;7.57;;
1262;SDS011;62267;50.112;8.704;2023-11-19T04:02:12;7.93;;;7.20;;
1262;SDS011;62267;50.112;8.704;2023-11-19T04:04:42;9.77;;;8.07;;
1262;SDS011;62267;50.112;8.704;2023-11-19T04:07:10;8.30;;;7.27;;
1262;SDS011;62267;50.112;8.704;2023-11-19T04:09:37;8.73;;;7.33;;
1262;SDS011;62267;50.112;8.704;2023-11-19T04:12:05;8.23;;;7.43;;
1262;SDS011;62267;50.112;8.704;2023-11-19T04:14:33;7.50;;;6.80;;
1262;SDS011;62267;50.112;8.704;2023-11-19T04:17:00;7.50;;;6.70;;
1262;SDS011;62267;50.112;8.704;2023-11-19T04:19:29;6.87;;;6.37;;
1262;SDS011;62267;50.112;8.704;2023-11-19T04:21:59;7.10;;;6.40;;
1262;SDS011;62267;50.112;8.704;2023-11-19T04:24:26;7.93;;;6.90;;
1262;SDS011;62267;50.112;8.704;2023-11-19T04:26:54;8.23;;;7.43;;
1262;SDS011;62267;50.112;8.704;2023-11-19T04:29:22;7.50;;;6.80;;
1262;SDS011;62267;50.112;8.704;2023-11-19T04:31:51;7.33;;;6.67;;
1262;SDS011;62267;50.112;8.704;2023-11-19T04:34:18;7.37;;;6.40;;
1262;SDS011;62267;50.112;8.704;2023-11-19T04:36:46;6.60;;;6.00;;
1262;SDS011;62267;50.112;8.704;2023-11-19T04:39:13;7.70;;;6.83;;
1262;SDS011;62267;50.112;8.704;2023-11-19T04:41:48;6.70;;;6.10;;
1262;SDS011;62267;50.112;8.704;2023-11-19T04:44:17;8.03;;;7.17;;
1262;SDS011;62267;50.112;8.704;2023-11-19T04:46:44;6.10;;;5.50;;
1262;SDS011;62267;50.112;8.704;2023-11-19T04:49:12;7.30;;;6.60;;
1262;SDS011;62267;50.112;8.704;2023-11-19T04:51:41;9.07;;;5.83;;
1262;SDS011;62267;50.112;8.704;2023-11-19T04:54:09;7.87;;;6.80;;
1262;SDS011;62267;50.112;8.704;2023-11-19T04:56:36;7.00;;;6.30;;
1262;SDS011;62267;50.112;8.704;2023-11-19T04:59:04;7.90;;;6.90;;
1262;SDS011;62267;50.112;8.704;2023-11-19T05:01:35;7.50;;;6.70;;
1262;SDS011;62267;50.112;8.704;2023-11-19T05:04:03;8.53;;;7.53;;
1262;SDS011;62267;50.112;8.704;2023-11-19T05:06:30;7.87;;;7.07;;
1262;SDS011;62267;50.112;8.704;2023-11-19T05:08:59;8.07;;;7.37;;
1262;SDS011;62267;50.112;8.704;2023-11-19T05:11:35;7.90;;;6.90;;
1262;SDS011;62267;50.112;8.704;2023-11-19T05:14:17;9.90;;;7.10;;
1262;SDS011;62267;50.112;8.704;2023-11-19T05:16:49;9.07;;;8.17;;
1262;SDS011;62267;50.112;8.704;2023-11-19T05:19:16;8.47;;;7.33;;
1262;SDS011;62267;50.112;8.704;2023-11-19T05:21:44;7.47;;;6.77;;
1262;SDS011;62267;50.112;8.704;2023-11-19T05:24:11;8.17;;;7.37;;
1262;SDS011;62267;50.112;8.704;2023-11-19T05:26:38;8.07;;;7.27;;
1262;SDS011;62267;50.112;8.704;2023-11-19T05:29:06;8.43;;;7.50;;
1262;SDS011;62267;50.112;8.704;2023-11-19T05:31:33;7.37;;;6.67;;
1262;SDS011;62267;50.112;8.704;2023-11-19T05:34:03;7.00;;;6.40;;
1262;SDS011;62267;50.112;8.704;2023-11-19T05:36:31;7.70;;;6.87;;
1262;SDS011;62267;50.112;8.704;2023-11-19T05:38:59;7.33;;;6.47;;
1262;SDS011;62267;50.112;8.704;2023-11-19T05:41:26;7.40;;;6.70;;
1262;SDS011;62267;50.112;8.704;2023-11-19T05:43:54;8.70;;;7.40;;
1262;SDS011;62267;50.112;8.704;2023-11-19T05:46:21;7.70;;;7.03;;
1262;SDS011;62267;50.112;8.704;2023-11-19T05:48:49;9.67;;;7.87;;
1262;SDS011;62267;50.112;8.704;2023-11-19T05:51:17;7.63;;;6.93;;
1262;SDS011;62267;50.112;8.704;2023-11-19T05:53:44;8.40;;;7.30;;
1262;SDS011;62267;50.112;8.704;2023-11-19T05:56:16;13.53;;;9.10;;
1262;SDS011;62267;50.112;8.704;2023-11-19T05:58:47;9.30;;;8.30;;
1262;SDS011;62267;50.112;8.704;2023-11-19T06:01:15;8.60;;;7.63;;
1262;SDS011;62267;50.112;8.704;2023-11-19T06:03:43;9.47;;;8.67;;
1262;SDS011;62267;50.112;8.704;2023-11-19T06:06:16;9.73;;;8.73;;
1262;SDS011;62267;50.112;8.704;2023-11-19T06:08:43;9.60;;;8.60;;
1262;SDS011;62267;50.112;8.704;2023-11-19T06:11:11;11.80;;;9.60;;
1262;SDS011;62267;50.112;8.704;2023-11-19T06:13:41;10.17;;;8.83;;
1262;SDS011;62267;50.112;8.704;2023-11-19T06:16:09;9.30;;;8.37;;
1262;SDS011;62267;50.112;8.704;2023-11-19T06:18:37;10.60;;;9.50;;
1262;SDS011;62267;50.112;8.704;2023-11-19T06:21:04;9.40;;;8.40;;
1262;SDS011;62267;50.112;8.704;2023-11-19T06:23:32;8.73;;;7.77;;
1262;SDS011;62267;50.112;8.704;2023-11-19T06:26:00;8.90;;;8.00;;
1262;SDS011;62267;50.112;8.704;2023-11-19T06:28:27;8.13;;;7.43;;
1262;SDS011;62267;50.112;8.704;2023-11-19T06:30:54;7.30;;;6.60;;
1262;SDS011;62267;50.112;8.704;2023-11-19T06:33:22;8.00;;;7.20;;
1262;SDS011;62267;50.112;8.704;2023-11-19T06:35:50;9.80;;;7.20;;
1262;SDS011;62267;50.112;8.704;2023-11-19T06:38:17;7.67;;;6.70;;
1262;SDS011;62267;50.112;8.704;2023-11-19T06:40:46;8.50;;;7.70;;
1262;SDS011;62267;50.112;8.704;2023-11-19T06:43:15;8.63;;;7.77;;
1262;SDS011;62267;50.112;8.704;2023-11-19T06:45:42;7.50;;;6.80;;
1262;SDS011;62267;50.112;8.704;2023-11-19T06:48:10;7.13;;;6.43;;
1262;SDS011;62267;50.112;8.704;2023-11-19T06:50:39;8.60;;;7.20;;
1262;SDS011;62267;50.112;8.704;2023-11-19T06:53:07;7.43;;;6.63;;
1262;SDS011;62267;50.112;8.704;2023-11-19T06:55:37;7.27;;;6.57;;
1262;SDS011;62267;50.112;8.704;2023-11-19T06:58:05;7.17;;;6.30;;
1262;SDS011;62267;50.112;8.704;2023-11-19T07:00:33;8.00;;;6.83;;
1262;SDS011;62267;50.112;8.704;2023-11-19T07:03:02;7.03;;;6.43;;
1262;SDS011;62267;50.112;8.704;2023-11-19T07:05:29;6.73;;;6.10;;
1262;SDS011;62267;50.112;8.704;2023-11-19T07:07:57;7.57;;;6.73;;
1262;SDS011;62267;50.112;8.704;2023-11-19T07:10:26;8.10;;;6.97;;
1262;SDS011;62267;50.112;8.704;2023-11-19T07:12:53;7.27;;;6.57;;
1262;SDS011;62267;50.112;8.704;2023-11-19T07:15:21;7.80;;;6.80;;
1262;SDS011;62267;50.112;8.704;2023-11-19T07:17:48;6.57;;;5.97;;
1262;SDS011;62267;50.112;8.704;2023-11-19T07:20:30;9.40;;;6.67;;
1262;SDS011;62267;50.112;8.704;2023-11-19T07:23:00;6.60;;;6.00;;
1262;SDS011;62267;50.112;8.704;2023-11-19T07:25:30;7.87;;;6.57;;
1262;SDS011;62267;50.112;8.704;2023-11-19T07:27:57;7.13;;;6.43;;
1262;SDS011;62267;50.112;8.704;2023-11-19T07:30:24;7.17;;;6.47;;
1262;SDS011;62267;50.112;8.704;2023-11-19T07:32:52;8.00;;;7.03;;
1262;SDS011;62267;50.112;8.704;2023-11-19T07:35:19;9.50;;;7.40;;
1262;SDS011;62267;50.112;8.704;2023-11-19T07:37:48;7.70;;;7.00;;
1262;SDS011;62267;50.112;8.704;2023-11-19T07:40:16;7.17;;;6.47;;
1262;SDS011;62267;50.112;8.704;2023-11-19T07:42:43;7.20;;;6.50;;
1262;SDS011;62267;50.112;8.704;2023-11-19T07:45:11;7.53;;;6.70;;
1262;SDS011;62267;50.112;8.704;2023-11-19T07:47:38;7.97;;;7.17;;
1262;SDS011;62267;50.112;8.704;2023-11-19T07:50:06;8.03;;;7.20;;
1262;SDS011;62267;50.112;8.704;2023-11-19T07:52:33;7.60;;;6.90;;
1262;SDS011;62267;50.112;8.704;2023-11-19T07:55:01;7.40;;;6.80;;
1262;SDS011;62267;50.112;8.704;2023-11-19T07:57:29;9.70;;;7.50;;
1262;SDS011;62267;50.112;8.704;2023-11-19T07:59:58;10.03;;;7.57;;
1262;SDS011;62267;50.112;8.704;2023-11-19T08:02:38;9.23;;;6.90;;
1262;SDS011;62267;50.112;8.704;2023-11-19T08:05:05;7.37;;;6.67;;
1262;SDS011;62267;50.112;8.704;2023-11-19T08:07:33;6.67;;;6.07;;
1262;SDS011;62267;50.112;8.704;2023-11-19T08:10:01;6.93;;;6.20;;
1262;SDS011;62267;50.112;8.704;2023-11-19T08:12:29;7.47;;;6.77;;
1262;SDS011;62267;50.112;8.704;2023-11-19T08:14:57;7.33;;;6.60;;
1262;SDS011;62267;50.112;8.704;2023-11-19T08:17:25;9.43;;;7.40;;
1262;SDS011;62267;50.112;8.704;2023-11-19T08:19:53;7.90;;;7.20;;
1262;SDS011;62267;50.112;8.704;2023-11-19T08:22:20;7.87;;;7.10;;
1262;SDS011;62267;50.112;8.704;2023-11-19T08:24:50;8.90;;;7.97;;
1262;SDS011;62267;50.112;8.704;2023-11-19T08:27:17;8.50;;;7.70;;
1262;SDS011;62267;50.112;8.704;2023-11-19T08:29:44;8.33;;;7.30;;
1262;SDS011;62267;50.112;8.704;2023-11-19T08:32:12;11.30;;;7.90;;
1262;SDS011;62267;50.112;8.704;2023-11-19T08:34:39;8.30;;;7.50;;
1262;SDS011;62267;50.112;8.704;2023-11-19T08:37:06;8.47;;;7.57;;
1262;SDS011;62267;50.112;8.704;2023-11-19T08:39:33;9.67;;;8.63;;
1262;SDS011;62267;50.112;8.704;2023-11-19T08:42:04;8.53;;;7.80;;
1262;SDS011;62267;50.112;8.704;2023-11-19T08:44:31;8.60;;;7.80;;
1262;SDS011;62267;50.112;8.704;2023-11-19T08:46:59;11.20;;;7.80;;
1262;SDS011;62267;50.112;8.704;2023-11-19T08:49:26;8.53;;;7.60;;
1262;SDS011;62267;50.112;8.704;2023-11-19T08:51:53;8.60;;;7.80;;
1262;SDS011;62267;50.112;8.704;2023-11-19T08:54:21;8.80;;;7.63;;
1262;SDS011;62267;50.112;8.704;2023-11-19T08:56:49;10.23;;;9.17;;
1262;SDS011;62267;50.112;8.704;2023-11-19T08:59:19;10.30;;;8.90;;
1262;SDS011;62267;50.112;8.704;2023-11-19T09:01:46;8.20;;;7.40;;
1262;SDS011;62267;50.112;8.704;2023-11-19T09:04:14;9.37;;;8.50;;
1262;SDS011;62267;50.112;8.704;2023-11-19T09:06:43;9.67;;;8.67;;
1262;SDS011;62267;50.112;8.704;2023-11-19T09:09:10;10.27;;;9.10;;
1262;SDS011;62267;50.112;8.704;2023-11-19T09:11:38;9.77;;;8.77;;
1262;SDS011;62267;50.112;8.704;2023-11-19T09:14:05;9.50;;;8.30;;
1262;SDS011;62267;50.112;8.704;2023-11-19T09:16:33;11.33;;;8.70;;
1262;SDS011;62267;50.112;8.704;2023-11-19T09:19:00;11.00;;;9.30;;
1262;SDS011;62267;50.112;8.704;2023-11-19T09:21:32;12.37;;;8.83;;
1262;SDS011;62267;50.112;8.704;2023-11-19T09:24:02;11.10;;;10.00;;
1262;SDS011;62267;50.112;8.704;2023-11-19T09:26:30;11.10;;;8.43;;
1262;SDS011;62267;50.112;8.704;2023-11-19T09:28:57;10.07;;;8.43;;
1262;SDS011;62267;50.112;8.704;2023-11-19T09:31:25;9.00;;;8.07;;
1262;SDS011;62267;50.112;8.704;2023-11-19T09:33:53;8.90;;;8.10;;
1262;SDS011;62267;50.112;8.704;2023-11-19T09:36:21;8.80;;;7.90;;
1262;SDS011;62267;50.112;8.704;2023-11-19T09:38:48;11.63;;;7.57;;
1262;SDS011;62267;50.112;8.704;2023-11-19T09:41:15;9.83;;;8.80;;
1262;SDS011;62267;50.112;8.704;2023-11-19T09:43:43;9.23;;;8.33;;
1262;SDS011;62267;50.112;8.704;2023-11-19T09:46:10;8.57;;;7.67;;
1262;SDS011;62267;50.112;8.704;2023-11-19T09:48:42;7.73;;;6.70;;
1262;SDS011;62267;50.112;8.704;2023-11-19T09:51:12;8.63;;;6.90;;
1262;SDS011;62267;50.112;8.704;2023-11-19T09:53:40;7.20;;;6.50;;
1262;SDS011;62267;50.112;8.704;2023-11-19T09:56:09;9.23;;;6.90;;
1262;SDS011;62267;50.112;8.704;2023-11-19T09:58:40;7.50;;;6.73;;
1262;SDS011;62267;50.112;8.704;2023-11-19T10:01:08;6.30;;;5.67;;
1262;SDS011;62267;50.112;8.704;2023-11-19T10:03:41;5.93;;;5.07;;
1262;SDS011;62267;50.112;8.704;2023-11-19T10:06:14;7.33;;;4.63;;
1262;SDS011;62267;50.112;8.704;2023-11-19T10:08:43;5.80;;;4.67;;
1262;SDS011;62267;50.112;8.704;2023-11-19T10:11:12;5.17;;;4.60;;
1262;SDS011;62267;50.112;8.704;2023-11-19T10:13:40;8.03;;;3.97;;
1262;SDS011;62267;50.112;8.704;2023-11-19T10:16:12;4.80;;;4.30;;
1262;SDS011;62267;50.112;8.704;2023-11-19T10:18:44;6.20;;;4.40;;
1262;SDS011;62267;50.112;8.704;2023-11-19T10:21:12;6.60;;;4.20;;
1262;SDS011;62267;50.112;8.704;2023-11-19T10:23:50;4.87;;;4.27;;
1262;SDS011;62267;50.112;8.704;2023-11-19T10:26:19;4.10;;;3.77;;
1262;SDS011;62267;50.112;8.704;2023-11-19T10:28:46;3.77;;;3.40;;
1262;SDS011;62267;50.112;8.704;2023-11-19T10:31:14;4.00;;;3.70;;
1262;SDS011;62267;50.112;8.704;2023-11-19T10:33:42;5.47;;;3.10;;
1262;SDS011;62267;50.112;8.704;2023-11-19T10:36:12;4.17;;;3.20;;
1262;SDS011;62267;50.112;8.704;2023-11-19T10:38:40;3.70;;;3.40;;
1262;SDS011;62267;50.112;8.704;2023-11-19T10:41:07;5.70;;;3.30;;
1262;SDS011;62267;50.112;8.704;2023-11-19T10:43:53;6.30;;;3.80;;
1262;SDS011;62267;50.112;8.704;2023-11-19T10:46:21;3.97;;;3.17;;
1262;SDS011;62267;50.112;8.704;2023-11-19T10:48:49;9.27;;;3.30;;
1262;SDS011;62267;50.112;8.704;2023-11-19T10:51:20;4.77;;;3.37;;
1262;SDS011;62267;50.112;8.704;2023-11-19T10:53:49;6.43;;;4.10;;
1262;SDS011;62267;50.112;8.704;2023-11-19T10:56:17;4.33;;;3.10;;
1262;SDS011;62267;50.112;8.704;2023-11-19T10:58:46;4.30;;;2.93;;
1262;SDS011;62267;50.112;8.704;2023-11-19T11:01:18;8.23;;;3.40;;
1262;SDS011;62267;50.112;8.704;2023-11-19T11:03:48;6.30;;;2.90;;
1262;SDS011;62267;50.112;8.704;2023-11-19T11:06:19;6.77;;;3.57;;
1262;SDS011;62267;50.112;8.704;2023-11-19T11:08:48;5.23;;;3.80;;
1262;SDS011;62267;50.112;8.704;2023-11-19T11:11:16;7.67;;;3.37;;
1262;SDS011;62267;50.112;8.704;2023-11-19T11:13:47;8.23;;;3.10;;
1262;SDS011;62267;50.112;8.704;2023-11-19T11:16:19;5.60;;;3.77;;
1262;SDS011;62267;50.112;8.704;2023-11-19T11:18:49;6.80;;;3.13;;
1262;SDS011;62267;50.112;8.704;2023-11-19T11:21:17;9.77;;;4.80;;
1262;SDS011;62267;50.112;8.704;2023-11-19T11:29:04;5.93;;;3.03;;
1262;SDS011;62267;50.112;8.704;2023-11-19T11:34:14;6.50;;;3.20;;
1262;SDS011;62267;50.112;8.704;2023-11-19T11:36:52;7.67;;;3.10;;
1262;SDS011;62267;50.112;8.704;2023-11-19T11:39:22;9.10;;;3.70;;
1262;SDS011;62267;50.112;8.704;2023-11-19T11:47:23;6.90;;;3.50;;
1262;SDS011;62267;50.112;8.704;2023-11-19T11:49:50;13.30;;;3.70;;
1262;SDS011;62267;50.112;8.704;2023-11-19T11:52:19;8.83;;;3.80;;
1262;SDS011;62267;50.112;8.704;2023-11-19T11:54:46;15.43;;;4.03;;
1262;SDS011;62267;50.112;8.704;2023-11-19T11:57:15;9.00;;;3.27;;
1262;SDS011;62267;50.112;8.704;2023-11-19T11:59:45;7.20;;;3.90;;
1262;SDS011;62267;50.112;8.704;2023-11-19T12:02:20;11.40;;;4.83;;
1262;SDS011;62267;50.112;8.704;2023-11-19T12:04:51;7.07;;;3.33;;
1262;SDS011;62267;50.112;8.704;2023-11-19T12:07:23;7.97;;;3.90;;
1262;SDS011;62267;50.112;8.704;2023-11-19T12:09:56;6.90;;;3.53;;
1262;SDS011;62267;50.112;8.704;2023-11-19T12:12:34;19.37;;;4.50;;
1262;SDS011;62267;50.112;8.704;2023-11-19T12:15:05;8.00;;;3.97;;
1262;SDS011;62267;50.112;8.704;2023-11-19T12:20:01;6.73;;;3.60;;
1262;SDS011;62267;50.112;8.704;2023-11-19T12:22:30;9.03;;;3.10;;
1262;SDS011;62267;50.112;8.704;2023-11-19T12:24:57;7.20;;;3.60;;
1262;SDS011;62267;50.112;8.704;2023-11-19T12:27:26;5.53;;;3.77;;
1262;SDS011;62267;50.112;8.704;2023-11-19T12:29:56;6.73;;;3.70;;
1262;SDS011;62267;50.112;8.704;2023-11-19T12:32:24;7.70;;;3.47;;
1262;SDS011;62267;50.112;8.704;2023-11-19T12:34:51;6.00;;;3.10;;
1262;SDS011;62267;50.112;8.704;2023-11-19T12:37:20;10.07;;;3.20;;
1262;SDS011;62267;50.112;8.704;2023-11-19T12:39:47;6.23;;;3.50;;
1262;SDS011;62267;50.112;8.704;2023-11-19T12:42:14;5.03;;;3.40;;
1262;SDS011;62267;50.112;8.704;2023-11-19T12:44:55;5.90;;;3.90;;
1262;SDS011;62267;50.112;8.704;2023-11-19T12:47:23;8.10;;;3.20;;
1262;SDS011;62267;50.112;8.704;2023-11-19T12:49:57;5.63;;;2.60;;
1262;SDS011;62267;50.112;8.704;2023-11-19T12:52:25;8.57;;;4.10;;
1262;SDS011;62267;50.112;8.704;2023-11-19T12:54:52;7.73;;;3.80;;
1262;SDS011;62267;50.112;8.704;2023-11-19T12:57:41;10.00;;;3.50;;
1262;SDS011;62267;50.112;8.704;2023-11-19T13:00:21;8.33;;;3.63;;
1262;SDS011;62267;50.112;8.704;2023-11-19T13:02:49;7.93;;;3.83;;
1262;SDS011;62267;50.112;8.704;2023-11-19T13:05:32;5.87;;;3.80;;
1262;SDS011;62267;50.112;8.704;2023-11-19T13:08:04;5.93;;;3.10;;
1262;SDS011;62267;50.112;8.704;2023-11-19T13:10:32;11.37;;;3.67;;
1262;SDS011;62267;50.112;8.704;2023-11-19T13:13:01;6.20;;;3.00;;
1262;SDS011;62267;50.112;8.704;2023-11-19T13:15:28;6.33;;;4.00;;
1262;SDS011;62267;50.112;8.704;2023-11-19T13:17:56;7.50;;;3.43;;
1262;SDS011;62267;50.112;8.704;2023-11-19T13:20:23;4.57;;;2.73;;
1262;SDS011;62267;50.112;8.704;2023-11-19T13:22:57;4.67;;;2.83;;
1262;SDS011;62267;50.112;8.704;2023-11-19T13:25:25;8.43;;;5.10;;
1262;SDS011;62267;50.112;8.704;2023-11-19T13:27:52;6.73;;;3.13;;
1262;SDS011;62267;50.112;8.704;2023-11-19T13:30:21;5.97;;;3.77;;
1262;SDS011;62267;50.112;8.704;2023-11-19T13:32:52;7.00;;;3.10;;
1262;SDS011;62267;50.112;8.704;2023-11-19T13:35:21;9.03;;;2.93;;
1262;SDS011;62267;50.112;8.704;2023-11-19T13:37:53;7.40;;;3.40;;
1262;SDS011;62267;50.112;8.704;2023-11-19T13:40:21;7.33;;;2.57;;
1262;SDS011;62267;50.112;8.704;2023-11-19T13:42:50;6.50;;;3.00;;
1262;SDS011;62267;50.112;8.704;2023-11-19T13:45:18;7.93;;;3.50;;
1262;SDS011;62267;50.112;8.704;2023-11-19T13:47:46;5.43;;;3.33;;
1262;SDS011;62267;50.112;8.704;2023-11-19T13:50:15;5.83;;;3.30;;
1262;SDS011;62267;50.112;8.704;2023-11-19T13:52:43;5.90;;;3.77;;
1262;SDS011;62267;50.112;8.704;2023-11-19T13:55:14;8.87;;;3.20;;
1262;SDS011;62267;50.112;8.704;2023-11-19T13:57:45;3.70;;;2.93;;
1262;SDS011;62267;50.112;8.704;2023-11-19T14:00:17;7.90;;;3.50;;
1262;SDS011;62267;50.112;8.704;2023-11-19T14:02:45;7.10;;;3.20;;
1262;SDS011;62267;50.112;8.704;2023-11-19T14:05:16;9.70;;;3.40;;
1262;SDS011;62267;50.112;8.704;2023-11-19T14:08:03;8.77;;;3.57;;
1262;SDS011;62267;50.112;8.704;2023-11-19T14:10:51;6.30;;;3.20;;
1262;SDS011;62267;50.112;8.704;2023-11-19T14:13:22;6.50;;;3.07;;
1262;SDS011;62267;50.112;8.704;2023-11-19T14:15:49;7.07;;;3.60;;
1262;SDS011;62267;50.112;8.704;2023-11-19T14:18:17;6.57;;;2.87;;
1262;SDS011;62267;50.112;8.704;2023-11-19T14:20:45;6.20;;;3.33;;
1262;SDS011;62267;50.112;8.704;2023-11-19T14:23:14;11.40;;;3.40;;
1262;SDS011;62267;50.112;8.704;2023-11-19T14:25:41;4.93;;;2.83;;
1262;SDS011;62267;50.112;8.704;2023-11-19T14:28:08;6.63;;;2.70;;
1262;SDS011;62267;50.112;8.704;2023-11-19T14:30:36;8.43;;;2.77;;
1262;SDS011;62267;50.112;8.704;2023-11-19T14:33:04;9.43;;;3.90;;
1262;SDS011;62267;50.112;8.704;2023-11-19T14:35:32;4.87;;;2.83;;
1262;SDS011;62267;50.112;8.704;2023-11-19T14:38:00;5.00;;;2.97;;
1262;SDS011;62267;50.112;8.704;2023-11-19T14:40:32;7.27;;;3.33;;
1262;SDS011;62267;50.112;8.704;2023-11-19T14:43:03;12.30;;;3.27;;
1262;SDS011;62267;50.112;8.704;2023-11-19T14:45:31;7.27;;;3.23;;
1262;SDS011;62267;50.112;8.704;2023-11-19T14:48:10;7.53;;;3.20;;
1262;SDS011;62267;50.112;8.704;2023-11-19T14:50:37;4.97;;;2.90;;
1262;SDS011;62267;50.112;8.704;2023-11-19T14:53:05;8.53;;;3.17;;
1262;SDS011;62267;50.112;8.704;2023-11-19T14:55:32;9.07;;;3.73;;
1262;SDS011;62267;50.112;8.704;2023-11-19T14:57:59;10.63;;;3.73;;
1262;SDS011;62267;50.112;8.704;2023-11-19T15:00:35;8.17;;;4.17;;
1262;SDS011;62267;50.112;8.704;2023-11-19T15:03:02;9.53;;;3.70;;
1262;SDS011;62267;50.112;8.704;2023-11-19T15:05:30;12.43;;;4.43;;
1262;SDS011;62267;50.112;8.704;2023-11-19T15:08:00;6.07;;;3.47;;
1262;SDS011;62267;50.112;8.704;2023-11-19T15:10:27;5.60;;;3.03;;
1262;SDS011;62267;50.112;8.704;2023-11-19T15:12:55;9.77;;;2.93;;
1262;SDS011;62267;50.112;8.704;2023-11-19T15:15:23;5.70;;;3.60;;
1262;SDS011;62267;50.112;8.704;2023-11-19T15:17:54;7.53;;;2.90;;
1262;SDS011;62267;50.112;8.704;2023-11-19T15:20:21;7.50;;;3.10;;
1262;SDS011;62267;50.112;8.704;2023-11-19T15:22:51;6.33;;;2.93;;
1262;SDS011;62267;50.112;8.704;2023-11-19T15:25:19;8.80;;;3.37;;